Time;durP1;ratioP1;P1;durP2;ratioP2;P2;SDS_P1;SDS_P2;PMS_P1;PMS_P2;Temp;Humidity;BMP_temperature;BMP_pressure;BME280_temperature;BME280_humidity;BME280_pressure;Samples;Min_cycle;Max_cycle;Signal;HPM_P1;HPM_P2
2023/06/16 00:00:19;;;;;;;7.93;5.32;;;18.80;94.80;;;;;;5030627;28;20049;-68
2023/06/16 00:02:48;;;;;;;8.40;5.03;;;18.80;94.40;;;;;;5030505;28;20045;-67
2023/06/16 00:05:14;;;;;;;10.05;4.45;;;18.80;94.60;;;;;;5030510;28;20025;-69
2023/06/16 00:07:39;;;;;;;6.07;4.55;;;18.90;94.20;;;;;;5029294;28;20120;-68
2023/06/16 00:10:08;;;;;;;8.32;5.28;;;18.80;93.90;;;;;;5030563;28;20241;-67
2023/06/16 00:12:35;;;;;;;8.52;4.38;;;18.80;93.90;;;;;;5030585;28;20056;-69
2023/06/16 00:15:01;;;;;;;12.32;4.50;;;18.80;93.90;;;;;;5030443;28;20163;-68
2023/06/16 00:17:27;;;;;;;6.68;4.35;;;18.80;94.20;;;;;;5029342;28;20045;-68
2023/06/16 00:19:57;;;;;;;9.27;4.70;;;18.80;94.20;;;;;;5029342;28;20029;-69
2023/06/16 00:22:25;;;;;;;6.88;5.13;;;18.80;95.30;;;;;;5030574;28;20095;-68
2023/06/16 00:24:52;;;;;;;8.60;4.95;;;18.70;94.90;;;;;;5030649;28;20017;-67
2023/06/16 00:27:18;;;;;;;6.30;4.65;;;18.70;95.00;;;;;;5030285;28;20030;-68
2023/06/16 00:29:44;;;;;;;9.73;5.55;;;18.70;95.00;;;;;;5030288;28;20033;-67
2023/06/16 00:32:10;;;;;;;10.98;5.43;;;18.70;94.70;;;;;;5030398;28;20064;-68
2023/06/16 00:34:35;;;;;;;9.80;5.28;;;18.80;94.40;;;;;;5030493;28;20026;-68
2023/06/16 00:37:01;;;;;;;8.75;5.18;;;18.60;94.60;;;;;;5030592;28;20541;-69
2023/06/16 00:39:27;;;;;;;9.77;5.15;;;18.60;94.50;;;;;;5030094;28;20061;-67
2023/06/16 00:41:53;;;;;;;9.63;5.07;;;18.70;94.60;;;;;;5030141;28;20025;-68
2023/06/16 00:44:18;;;;;;;9.30;5.40;;;18.70;94.50;;;;;;5030120;28;20102;-68
2023/06/16 00:46:44;;;;;;;7.53;5.25;;;18.70;94.00;;;;;;5030222;28;20029;-67
2023/06/16 00:49:10;;;;;;;11.10;5.25;;;18.80;93.90;;;;;;5030503;28;20017;-67
2023/06/16 00:51:37;;;;;;;5.75;4.72;;;18.70;94.40;;;;;;5030096;28;20029;-68
2023/06/16 00:54:03;;;;;;;9.40;5.07;;;18.70;94.00;;;;;;5029038;28;20503;-67
2023/06/16 00:56:29;;;;;;;7.65;5.00;;;18.70;94.00;;;;;;5029888;28;20080;-69
2023/06/16 00:58:55;;;;;;;7.18;5.00;;;18.60;94.00;;;;;;5028738;28;20083;-68
2023/06/16 01:01:24;;;;;;;9.55;5.07;;;18.60;94.00;;;;;;5030175;28;20040;-68
2023/06/16 01:03:52;;;;;;;8.55;4.97;;;18.60;94.00;;;;;;5030544;28;20580;-68
2023/06/16 01:06:48;;;;;;;9.05;5.60;;;18.60;93.70;;;;;;5028738;28;20490;-68
2023/06/16 01:09:26;;;;;;;6.65;4.80;;;18.60;93.70;;;;;;5029664;28;20420;-68
2023/06/16 01:12:05;;;;;;;8.07;4.93;;;18.50;93.80;;;;;;5029999;28;20459;-68
2023/06/16 01:14:58;;;;;;;12.45;5.05;;;18.60;93.80;;;;;;5029844;28;20121;-68
2023/06/16 01:17:28;;;;;;;7.93;4.70;;;18.50;94.00;;;;;;5021574;28;20034;-68
2023/06/16 01:20:08;;;;;;;10.43;5.40;;;18.30;94.40;;;;;;5028545;28;20045;-69
2023/06/16 01:23:00;;;;;;;9.55;5.05;;;18.30;95.00;;;;;;5033447;28;20489;-68
2023/06/16 01:25:29;;;;;;;8.05;5.20;;;18.30;95.20;;;;;;5033443;28;20120;-68
2023/06/16 01:27:56;;;;;;;7.70;4.40;;;18.30;95.30;;;;;;5033807;28;20026;-68
2023/06/16 01:30:24;;;;;;;7.53;4.97;;;18.20;95.30;;;;;;5033349;28;20482;-69
2023/06/16 01:32:53;;;;;;;7.75;4.60;;;18.20;95.10;;;;;;5033286;28;20418;-68
2023/06/16 01:35:20;;;;;;;8.70;5.05;;;18.20;95.20;;;;;;5037247;28;20087;-67
2023/06/16 01:37:49;;;;;;;11.38;5.28;;;18.10;94.70;;;;;;5052094;28;20367;-69
2023/06/16 01:40:15;;;;;;;8.02;4.90;;;18.10;94.90;;;;;;5053638;28;20025;-69
2023/06/16 01:42:43;;;;;;;7.18;5.25;;;18.10;95.10;;;;;;5051744;28;20048;-68
2023/06/16 01:45:11;;;;;;;9.40;5.40;;;18.20;94.90;;;;;;5052116;28;20087;-67
2023/06/16 01:47:37;;;;;;;8.95;5.18;;;18.30;94.70;;;;;;5051796;28;20041;-68
2023/06/16 01:50:03;;;;;;;12.10;4.75;;;18.30;94.60;;;;;;5052867;28;20044;-67
2023/06/16 01:52:28;;;;;;;8.13;5.18;;;18.30;94.50;;;;;;5052824;28;20025;-66
2023/06/16 01:54:54;;;;;;;7.38;4.75;;;18.20;94.00;;;;;;5053328;28;20068;-68
2023/06/16 01:57:21;;;;;;;8.23;4.82;;;18.20;94.60;;;;;;5052613;28;20047;-68
2023/06/16 02:00:03;;;;;;;10.80;4.90;;;18.20;94.30;;;;;;5052669;28;20037;-67
2023/06/16 02:02:30;;;;;;;7.93;5.00;;;18.20;94.60;;;;;;5052804;28;20144;-67
2023/06/16 02:05:00;;;;;;;14.32;5.10;;;18.10;94.20;;;;;;5052642;28;20057;-67
2023/06/16 02:07:34;;;;;;;10.23;4.75;;;18.10;94.10;;;;;;5052585;28;20408;-67
2023/06/16 02:10:02;;;;;;;7.78;5.20;;;18.10;94.00;;;;;;5052833;28;20029;-68
2023/06/16 02:12:29;;;;;;;;;;;18.10;93.90;;;;;;5053170;28;20021;-66
2023/06/16 02:14:55;;;;;;;9.45;5.05;;;18.00;93.80;;;;;;5052364;28;19912;-66
2023/06/16 02:17:27;;;;;;;7.88;4.78;;;18.00;93.90;;;;;;5051400;28;20507;-67
2023/06/16 02:19:54;;;;;;;8.40;5.07;;;18.00;94.10;;;;;;5052273;28;20029;-66
2023/06/16 02:22:20;;;;;;;8.13;5.07;;;17.90;94.00;;;;;;5052746;28;20025;-67
2023/06/16 02:24:46;;;;;;;7.13;4.38;;;17.90;93.80;;;;;;5052772;28;20371;-68
2023/06/16 02:27:13;;;;;;;9.82;4.95;;;18.00;93.70;;;;;;5052497;28;20110;-67
2023/06/16 02:29:40;;;;;;;10.57;4.75;;;17.90;93.60;;;;;;5051920;28;20037;-67
2023/06/16 02:32:06;;;;;;;6.60;4.38;;;17.90;93.50;;;;;;5051748;28;20045;-67
2023/06/16 02:34:32;;;;;;;10.95;5.32;;;17.80;93.70;;;;;;5052183;28;20040;-67
2023/06/16 02:36:58;;;;;;;12.73;4.85;;;17.70;93.60;;;;;;5052557;28;20025;-68
2023/06/16 02:39:24;;;;;;;9.82;4.40;;;17.80;93.50;;;;;;5052051;28;20044;-67
2023/06/16 02:41:50;;;;;;;11.95;4.30;;;17.80;93.50;;;;;;5051886;28;20029;-68
2023/06/16 02:44:16;;;;;;;9.50;4.43;;;17.80;93.40;;;;;;5052012;28;20045;-68
2023/06/16 02:46:41;;;;;;;9.82;4.80;;;17.90;93.40;;;;;;5051786;28;20425;-67
2023/06/16 02:49:07;;;;;;;7.65;4.68;;;17.90;93.20;;;;;;5052260;28;20047;-67
2023/06/16 02:51:34;;;;;;;5.40;4.05;;;18.00;93.10;;;;;;5051821;28;20059;-67
2023/06/16 02:54:00;;;;;;;9.77;4.82;;;17.90;93.10;;;;;;5051747;28;20026;-67
2023/06/16 02:56:28;;;;;;;7.95;4.43;;;18.00;93.00;;;;;;5051581;28;20036;-68
2023/06/16 02:58:54;;;;;;;8.18;5.07;;;17.90;93.20;;;;;;5051557;28;20063;-67
2023/06/16 03:01:24;;;;;;;9.38;4.68;;;17.80;93.20;;;;;;5052087;28;20108;-68
2023/06/16 03:03:51;;;;;;;10.55;4.95;;;17.90;93.30;;;;;;5052195;28;20033;-67
2023/06/16 03:06:19;;;;;;;8.50;4.90;;;17.90;93.20;;;;;;5051603;28;20116;-68
2023/06/16 03:08:45;;;;;;;8.95;5.10;;;17.90;93.00;;;;;;5051409;28;20485;-67
2023/06/16 03:11:11;;;;;;;10.38;5.18;;;17.80;93.30;;;;;;5051335;28;20033;-66
2023/06/16 03:13:38;;;;;;;7.15;4.45;;;17.70;93.40;;;;;;5051614;28;20052;-68
2023/06/16 03:16:03;;;;;;;12.75;5.38;;;17.90;93.30;;;;;;5050654;28;20028;-67
2023/06/16 03:18:29;;;;;;;10.23;5.70;;;17.90;93.10;;;;;;5051378;28;20083;-69
2023/06/16 03:20:55;;;;;;;11.95;5.13;;;17.90;93.20;;;;;;5051209;28;20116;-68
2023/06/16 03:23:20;;;;;;;7.68;5.10;;;18.00;93.00;;;;;;5050857;28;20053;-68
2023/06/16 03:25:46;;;;;;;10.55;5.47;;;18.00;93.00;;;;;;5051051;28;20057;-68
2023/06/16 03:28:13;;;;;;;9.05;4.90;;;17.90;93.10;;;;;;5051397;28;20080;-68
2023/06/16 03:30:40;;;;;;;9.07;5.25;;;17.90;93.20;;;;;;5050927;28;20138;-68
2023/06/16 03:33:06;;;;;;;7.60;4.95;;;17.80;93.20;;;;;;5050727;28;20087;-68
2023/06/16 03:35:32;;;;;;;7.43;4.75;;;17.80;93.10;;;;;;5050831;28;20032;-68
2023/06/16 03:37:57;;;;;;;10.60;5.07;;;17.70;93.30;;;;;;5050803;28;20367;-68
2023/06/16 03:40:23;;;;;;;11.55;5.60;;;17.80;93.30;;;;;;5049657;28;20061;-68
2023/06/16 03:42:49;;;;;;;8.57;4.97;;;17.70;93.30;;;;;;5050541;28;20060;-68
2023/06/16 03:45:15;;;;;;;9.02;5.25;;;17.50;93.50;;;;;;5050690;28;20061;-68
2023/06/16 03:47:41;;;;;;;9.50;5.25;;;17.60;93.40;;;;;;5051056;28;20048;-67
2023/06/16 03:50:07;;;;;;;11.45;5.25;;;17.50;93.60;;;;;;5049394;28;20072;-68
2023/06/16 03:52:33;;;;;;;8.00;5.05;;;17.60;93.60;;;;;;5050483;28;20130;-66
2023/06/16 03:54:59;;;;;;;9.50;5.15;;;17.50;93.60;;;;;;5050898;28;20029;-68
2023/06/16 03:57:25;;;;;;;8.30;5.15;;;17.40;93.70;;;;;;5050480;28;20047;-66
2023/06/16 03:59:51;;;;;;;9.02;4.90;;;17.40;93.80;;;;;;5050492;28;20029;-66
2023/06/16 04:02:16;;;;;;;11.80;5.75;;;17.40;93.80;;;;;;5050604;28;20043;-67
2023/06/16 04:04:45;;;;;;;10.93;5.13;;;17.40;93.90;;;;;;5050365;28;20036;-67
2023/06/16 04:07:11;;;;;;;12.57;5.72;;;17.20;94.10;;;;;;5050694;28;20024;-67
2023/06/16 04:09:38;;;;;;;7.25;5.43;;;17.30;94.30;;;;;;5048932;28;20659;-67
2023/06/16 04:12:04;;;;;;;11.85;5.60;;;17.40;93.90;;;;;;5050304;28;20087;-69
2023/06/16 04:14:30;;;;;;;12.20;5.03;;;17.40;93.70;;;;;;5050398;28;20025;-67
2023/06/16 04:16:56;;;;;;;9.98;5.57;;;17.60;93.60;;;;;;5050232;28;20056;-68
2023/06/16 04:19:21;;;;;;;10.73;5.68;;;17.60;93.50;;;;;;5048907;28;20025;-66
2023/06/16 04:21:47;;;;;;;18.73;6.90;;;17.60;93.80;;;;;;5050552;28;20033;-67
2023/06/16 04:24:14;;;;;;;11.40;5.45;;;17.60;93.60;;;;;;5050281;28;20087;-67
2023/06/16 04:26:43;;;;;;;10.75;6.22;;;17.50;93.70;;;;;;5050165;28;20525;-67
2023/06/16 04:29:09;;;;;;;11.35;5.97;;;17.50;93.80;;;;;;5050059;28;20516;-67
2023/06/16 04:31:35;;;;;;;9.77;5.97;;;17.40;93.80;;;;;;5049823;28;20045;-68
2023/06/16 04:34:04;;;;;;;10.20;6.30;;;17.40;93.70;;;;;;5050627;28;20467;-67
2023/06/16 04:36:30;;;;;;;11.73;5.80;;;17.40;93.60;;;;;;5050060;28;20403;-67
2023/06/16 04:38:57;;;;;;;14.73;6.70;;;17.50;93.60;;;;;;5049902;28;20037;-67
2023/06/16 04:41:23;;;;;;;9.50;6.35;;;17.40;93.70;;;;;;5050100;28;20139;-68
2023/06/16 04:43:49;;;;;;;14.02;6.72;;;17.30;94.00;;;;;;5049951;28;20021;-67
2023/06/16 04:46:15;;;;;;;11.02;6.28;;;17.20;94.10;;;;;;5050294;28;20028;-67
2023/06/16 04:48:41;;;;;;;12.50;6.57;;;17.30;94.00;;;;;;5049009;28;20110;-67
2023/06/16 04:51:07;;;;;;;10.40;6.57;;;17.30;94.20;;;;;;5049988;28;20091;-68
2023/06/16 04:53:33;;;;;;;17.38;7.00;;;17.30;94.10;;;;;;5049948;28;20037;-66
2023/06/16 04:55:58;;;;;;;12.00;7.13;;;17.30;94.20;;;;;;5051808;28;20090;-66
2023/06/16 04:58:24;;;;;;;10.20;6.82;;;17.40;94.00;;;;;;5053892;28;20020;-66
2023/06/16 05:00:50;;;;;;;15.02;7.55;;;17.60;93.80;;;;;;5053312;28;20455;-66
2023/06/16 05:03:16;;;;;;;10.80;6.63;;;17.50;94.10;;;;;;5053787;28;20041;-68
2023/06/16 05:05:43;;;;;;;11.40;6.72;;;17.60;93.90;;;;;;5053766;28;20467;-67
2023/06/16 05:08:08;;;;;;;11.55;6.30;;;17.60;93.80;;;;;;5052480;28;20060;-67
2023/06/16 05:10:35;;;;;;;16.05;7.20;;;17.70;93.70;;;;;;5053825;28;20539;-67
2023/06/16 05:13:01;;;;;;;10.93;7.35;;;17.80;93.50;;;;;;5054042;28;20462;-67
2023/06/16 05:15:27;;;;;;;11.25;6.70;;;17.90;93.60;;;;;;5052413;28;20029;-67
2023/06/16 05:17:53;;;;;;;10.15;7.07;;;18.00;93.50;;;;;;5052276;28;20450;-68
2023/06/16 05:20:18;;;;;;;14.07;6.80;;;17.80;93.70;;;;;;5053224;28;20029;-68
2023/06/16 05:22:44;;;;;;;16.73;7.28;;;17.90;93.80;;;;;;5053136;28;20029;-67
2023/06/16 05:25:10;;;;;;;18.80;6.70;;;17.90;93.90;;;;;;5053691;28;20036;-67
2023/06/16 05:27:36;;;;;;;12.57;6.78;;;17.90;93.80;;;;;;5052207;28;20033;-67
2023/06/16 05:30:02;;;;;;;13.27;7.43;;;17.80;93.90;;;;;;5053446;28;20033;-67
2023/06/16 05:32:27;;;;;;;12.73;7.35;;;17.90;93.90;;;;;;5052989;28;20045;-67
2023/06/16 05:34:53;;;;;;;15.55;6.80;;;18.00;93.70;;;;;;5053297;28;20025;-67
2023/06/16 05:37:20;;;;;;;11.77;7.05;;;18.10;93.70;;;;;;5053457;28;20435;-68
2023/06/16 05:39:47;;;;;;;15.73;7.22;;;18.00;93.60;;;;;;5052931;28;20506;-67
2023/06/16 05:42:14;;;;;;;12.82;7.32;;;18.10;93.60;;;;;;5045049;28;20037;-66
2023/06/16 05:44:41;;;;;;;15.20;7.20;;;18.20;93.50;;;;;;5033247;28;20033;-67
2023/06/16 05:47:07;;;;;;;11.63;7.47;;;18.30;93.40;;;;;;5032731;28;20041;-68
2023/06/16 05:49:33;;;;;;;18.50;7.70;;;18.30;93.40;;;;;;5032881;28;20109;-68
2023/06/16 05:52:01;;;;;;;15.15;8.02;;;18.30;93.30;;;;;;5033117;28;20100;-68
2023/06/16 05:54:28;;;;;;;12.30;7.68;;;18.30;93.50;;;;;;5032637;28;20040;-68
2023/06/16 05:56:54;;;;;;;17.58;7.72;;;18.20;93.30;;;;;;5032671;28;20029;-66
2023/06/16 05:59:20;;;;;;;13.52;6.32;;;18.20;93.80;;;;;;5032962;28;20044;-66
2023/06/16 06:01:46;;;;;;;15.95;8.77;;;18.20;93.40;;;;;;5031657;28;20037;-67
2023/06/16 06:04:12;;;;;;;17.30;8.02;;;18.20;93.60;;;;;;5032873;28;20247;-68
2023/06/16 06:06:38;;;;;;;15.45;8.32;;;18.10;93.70;;;;;;5031939;28;20030;-68
2023/06/16 06:09:04;;;;;;;14.95;8.75;;;18.10;93.80;;;;;;5032566;28;20136;-67
2023/06/16 06:11:30;;;;;;;11.95;7.85;;;18.10;93.70;;;;;;5032429;28;20022;-68
2023/06/16 06:13:56;;;;;;;14.73;8.20;;;18.00;93.90;;;;;;5032454;28;20036;-69
2023/06/16 06:16:23;;;;;;;14.48;8.07;;;18.20;93.60;;;;;;5031427;28;20373;-69
2023/06/16 06:18:49;;;;;;;18.98;8.88;;;18.40;93.60;;;;;;5032966;28;20456;-69
2023/06/16 06:21:15;;;;;;;18.10;9.48;;;18.40;93.60;;;;;;5032382;28;20041;-68
2023/06/16 06:23:41;;;;;;;11.60;8.23;;;18.30;93.50;;;;;;5031904;28;20468;-68
2023/06/16 06:26:07;;;;;;;11.93;8.68;;;18.40;93.50;;;;;;5032379;28;20241;-67
2023/06/16 06:28:32;;;;;;;21.90;9.25;;;18.40;93.60;;;;;;5031188;28;20030;-68
2023/06/16 06:30:58;;;;;;;21.63;9.73;;;18.60;93.40;;;;;;5032595;28;20026;-69
2023/06/16 06:33:23;;;;;;;15.80;8.25;;;18.70;93.20;;;;;;5028455;28;20135;-68
2023/06/16 06:35:49;;;;;;;14.63;8.20;;;18.70;93.20;;;;;;5033304;28;20026;-69
2023/06/16 06:38:15;;;;;;;14.55;7.75;;;18.70;93.10;;;;;;5032215;28;20044;-67
2023/06/16 06:40:40;;;;;;;15.93;8.45;;;18.70;93.20;;;;;;5032233;28;20037;-68
2023/06/16 06:43:06;;;;;;;14.70;9.23;;;18.60;93.50;;;;;;5033541;28;20104;-69
2023/06/16 06:45:32;;;;;;;23.30;8.38;;;18.60;93.60;;;;;;5032105;28;20037;-67
2023/06/16 06:47:57;;;;;;;15.48;8.68;;;18.50;93.60;;;;;;5032733;28;20357;-68
2023/06/16 06:50:23;;;;;;;15.05;8.98;;;18.50;93.80;;;;;;5032189;28;20050;-68
2023/06/16 06:52:49;;;;;;;16.88;9.07;;;18.50;94.00;;;;;;5032983;28;20171;-69
2023/06/16 06:55:15;;;;;;;13.88;9.43;;;18.40;94.00;;;;;;5033357;28;20041;-67
2023/06/16 06:57:42;;;;;;;11.73;7.70;;;18.50;94.00;;;;;;5031747;28;20385;-67
2023/06/16 07:00:10;;;;;;;18.55;9.80;;;18.70;94.00;;;;;;5032888;28;20383;-68
2023/06/16 07:02:35;;;;;;;12.02;8.02;;;18.60;94.00;;;;;;5032227;28;20033;-69
2023/06/16 07:05:02;;;;;;;14.32;8.73;;;18.80;94.00;;;;;;5032484;28;20029;-68
2023/06/16 07:07:27;;;;;;;19.92;9.27;;;18.80;93.90;;;;;;5032682;28;20118;-69
2023/06/16 07:09:53;;;;;;;16.15;9.02;;;18.70;94.10;;;;;;5033563;28;20057;-68
2023/06/16 07:12:19;;;;;;;13.98;8.13;;;18.80;94.30;;;;;;5031779;28;20026;-68
2023/06/16 07:14:47;;;;;;;14.07;7.80;;;19.00;94.00;;;;;;5032918;28;20036;-70
2023/06/16 07:17:13;;;;;;;21.75;9.57;;;19.10;93.90;;;;;;5030925;28;20444;-68
2023/06/16 07:19:38;;;;;;;19.73;8.95;;;19.20;93.70;;;;;;5031866;28;20036;-68
2023/06/16 07:22:05;;;;;;;12.85;8.50;;;19.00;93.70;;;;;;5033360;28;20021;-69
2023/06/16 07:24:31;;;;;;;13.80;8.30;;;19.00;94.00;;;;;;5032335;28;20060;-67
2023/06/16 07:26:59;;;;;;;14.18;7.85;;;19.10;93.80;;;;;;5032329;28;20029;-67
2023/06/16 07:29:25;;;;;;;12.23;8.20;;;19.20;93.70;;;;;;5031498;28;20427;-68
2023/06/16 07:31:51;;;;;;;15.60;9.10;;;19.20;93.70;;;;;;5030771;28;20102;-67
2023/06/16 07:34:18;;;;;;;13.05;8.27;;;19.20;93.60;;;;;;5030300;28;20047;-68
2023/06/16 07:36:43;;;;;;;12.23;8.60;;;19.20;93.30;;;;;;5030905;28;20095;-68
2023/06/16 07:39:09;;;;;;;22.27;8.90;;;19.20;93.50;;;;;;5030792;28;20463;-68
2023/06/16 07:41:35;;;;;;;15.43;8.60;;;19.30;93.70;;;;;;5030927;28;20025;-69
2023/06/16 07:44:01;;;;;;;13.75;8.60;;;19.40;93.70;;;;;;5031038;28;20045;-67
2023/06/16 07:46:27;;;;;;;17.02;9.73;;;19.30;93.70;;;;;;5030911;28;20329;-69
2023/06/16 07:48:53;;;;;;;13.85;8.63;;;19.50;93.60;;;;;;5031244;28;20029;-69
2023/06/16 07:51:20;;;;;;;18.25;9.15;;;19.50;93.60;;;;;;5029490;28;20053;-71
2023/06/16 07:53:48;;;;;;;14.32;7.88;;;19.60;93.60;;;;;;5030849;28;20044;-68
2023/06/16 07:56:14;;;;;;;22.90;8.80;;;19.90;93.40;;;;;;5030626;28;20103;-67
2023/06/16 07:58:39;;;;;;;13.73;7.63;;;20.20;93.00;;;;;;5030756;28;20424;-67
2023/06/16 08:01:05;;;;;;;16.10;8.05;;;20.60;92.60;;;;;;5031199;28;20066;-67
2023/06/16 08:03:31;;;;;;;18.42;8.13;;;20.70;92.10;;;;;;5030696;28;20456;-67
2023/06/16 08:05:57;;;;;;;10.30;6.82;;;20.80;91.80;;;;;;5029634;28;20375;-68
2023/06/16 08:08:26;;;;;;;13.52;7.22;;;20.70;91.10;;;;;;5030784;28;20029;-67
2023/06/16 08:10:53;;;;;;;11.07;6.10;;;20.80;91.00;;;;;;5030447;28;20038;-68
2023/06/16 08:13:19;;;;;;;17.33;7.43;;;21.10;90.30;;;;;;5030946;28;20434;-67
2023/06/16 08:15:44;;;;;;;10.93;6.45;;;21.20;90.60;;;;;;5030220;28;20045;-68
2023/06/16 08:18:10;;;;;;;10.98;5.93;;;21.20;90.40;;;;;;5030696;28;20033;-67
2023/06/16 08:20:37;;;;;;;16.02;7.32;;;21.20;90.00;;;;;;5030304;28;20420;-68
2023/06/16 08:23:02;;;;;;;11.98;7.50;;;21.20;90.50;;;;;;5030272;28;20423;-68
2023/06/16 08:25:28;;;;;;;10.98;6.70;;;21.30;90.80;;;;;;5029894;28;20089;-68
2023/06/16 08:27:54;;;;;;;13.73;7.70;;;21.50;90.90;;;;;;5042494;28;20021;-68
2023/06/16 08:30:19;;;;;;;10.20;7.40;;;21.40;90.90;;;;;;5049548;28;20112;-68
2023/06/16 08:32:45;;;;;;;14.20;7.50;;;21.50;90.70;;;;;;5049842;28;20045;-70
2023/06/16 08:35:11;;;;;;;23.25;14.75;;;21.50;90.80;;;;;;5051286;28;20040;-67
2023/06/16 08:37:36;;;;;;;15.20;9.00;;;21.40;90.80;;;;;;5051441;28;20096;-69
2023/06/16 08:40:10;;;;;;;14.45;7.50;;;21.60;90.60;;;;;;5051463;28;20086;-69
2023/06/16 08:42:37;;;;;;;11.15;6.78;;;21.80;90.30;;;;;;5050836;28;20029;-68
2023/06/16 08:45:04;;;;;;;11.95;6.72;;;21.80;90.10;;;;;;5051107;28;20090;-67
2023/06/16 08:47:29;;;;;;;15.55;7.32;;;22.30;90.10;;;;;;5050805;28;20375;-67
2023/06/16 08:49:56;;;;;;;10.40;6.38;;;22.60;88.60;;;;;;5050735;28;20040;-69
2023/06/16 08:52:23;;;;;;;11.52;7.20;;;23.10;87.90;;;;;;5050338;28;20028;-69
2023/06/16 08:54:57;;;;;;;9.63;6.15;;;22.90;87.30;;;;;;5051484;28;20128;-68
2023/06/16 08:57:23;;;;;;;10.00;5.68;;;23.00;87.10;;;;;;5050498;28;20094;-68
2023/06/16 08:59:53;;;;;;;10.07;5.90;;;23.10;85.50;;;;;;5049654;28;20106;-68
2023/06/16 09:02:20;;;;;;;8.38;5.90;;;23.60;85.30;;;;;;5050740;28;20040;-68
2023/06/16 09:04:46;;;;;;;8.85;6.03;;;23.80;84.90;;;;;;5050622;28;20033;-68
2023/06/16 09:07:16;;;;;;;9.70;6.35;;;24.20;83.50;;;;;;5050986;28;20032;-68
2023/06/16 09:09:42;;;;;;;9.38;6.75;;;24.30;83.10;;;;;;5049478;28;20036;-69
2023/06/16 09:12:10;;;;;;;8.70;6.47;;;24.40;82.20;;;;;;5050563;28;20044;-69
2023/06/16 09:14:37;;;;;;;13.35;6.45;;;24.60;81.70;;;;;;5050691;28;20044;-69
2023/06/16 09:17:07;;;;;;;12.35;6.20;;;24.90;81.00;;;;;;5051095;28;20392;-69
2023/06/16 09:19:34;;;;;;;10.70;5.40;;;24.90;80.60;;;;;;5050403;28;20714;-68
2023/06/16 09:22:01;;;;;;;10.73;5.65;;;25.30;79.50;;;;;;5048621;28;20040;-69
2023/06/16 09:24:28;;;;;;;13.20;5.50;;;25.50;78.30;;;;;;5050345;28;20429;-69
2023/06/16 09:27:00;;;;;;;10.85;6.05;;;25.40;75.70;;;;;;5049054;28;20367;-70
2023/06/16 09:29:28;;;;;;;11.43;5.80;;;25.30;75.90;;;;;;5050333;28;20471;-69
2023/06/16 09:32:05;;;;;;;10.02;6.22;;;25.30;77.00;;;;;;5049878;28;20042;-70
2023/06/16 09:34:31;;;;;;;;;;;25.20;77.10;;;;;;5049296;28;20055;-68
2023/06/16 09:36:56;;;;;;;13.13;6.25;;;25.10;77.70;;;;;;5050055;28;20323;-69
2023/06/16 09:39:24;;;;;;;9.55;6.85;;;25.10;77.00;;;;;;5049621;28;20025;-70
2023/06/16 09:41:50;;;;;;;8.55;5.78;;;25.20;77.10;;;;;;5049713;28;20044;-69
2023/06/16 09:44:16;;;;;;;12.30;5.63;;;25.30;76.30;;;;;;5053135;28;20467;-69
2023/06/16 09:46:43;;;;;;;7.53;5.65;;;25.20;76.20;;;;;;5053172;28;20025;-69
2023/06/16 09:49:23;;;;;;;12.25;6.15;;;25.40;76.70;;;;;;5053318;28;20025;-67
2023/06/16 09:51:52;;;;;;;9.20;6.70;;;25.50;76.30;;;;;;5073429;28;20374;-69
2023/06/16 09:54:20;;;;;;;10.57;6.63;;;25.50;76.10;;;;;;5072872;28;20041;-69
2023/06/16 09:56:46;;;;;;;11.02;7.57;;;25.60;76.00;;;;;;5060914;28;20110;-69
2023/06/16 09:59:11;;;;;;;11.07;6.18;;;25.30;76.30;;;;;;5052555;28;20061;-69
2023/06/16 10:01:41;;;;;;;12.85;7.65;;;25.50;76.60;;;;;;5052895;28;20043;-69
2023/06/16 10:04:13;;;;;;;13.73;7.18;;;25.40;76.40;;;;;;5053348;28;20021;-69
2023/06/16 10:06:47;;;;;;;12.85;7.35;;;25.60;77.10;;;;;;5053104;28;20472;-70
2023/06/16 10:09:20;;;;;;;9.50;6.97;;;25.50;78.20;;;;;;5052662;28;20467;-69
2023/06/16 10:11:47;;;;;;;12.65;6.47;;;25.80;77.50;;;;;;5052518;28;20175;-70
2023/06/16 10:14:17;;;;;;;11.17;6.47;;;25.80;77.20;;;;;;5052524;28;20041;-70
2023/06/16 10:16:44;;;;;;;11.13;6.50;;;26.10;76.90;;;;;;5053178;28;20265;-70
2023/06/16 10:19:11;;;;;;;;;;;25.90;76.20;;;;;;5053682;28;20078;-69
2023/06/16 10:21:38;;;;;;;9.18;5.13;;;25.40;74.40;;;;;;5052995;28;19920;-70
2023/06/16 10:24:04;;;;;;;19.65;5.85;;;25.50;74.00;;;;;;5052760;28;20029;-70
2023/06/16 10:26:30;;;;;;;12.13;5.65;;;25.50;74.60;;;;;;5051279;28;20044;-70
2023/06/16 10:28:56;;;;;;;13.23;4.78;;;25.50;74.40;;;;;;5052914;28;20037;-70
2023/06/16 10:31:23;;;;;;;13.88;5.43;;;25.80;74.80;;;;;;5052886;28;20059;-69
2023/06/16 10:33:55;;;;;;;7.80;4.90;;;25.80;74.20;;;;;;5073035;28;20139;-71
2023/06/16 10:36:23;;;;;;;11.70;5.28;;;25.70;74.10;;;;;;5057743;28;20121;-71
2023/06/16 10:38:57;;;;;;;;;;;25.60;73.90;;;;;;5041649;28;20053;-70
2023/06/16 10:41:23;;;;;;;11.43;6.13;;;25.80;74.20;;;;;;5032776;28;19909;-71
2023/06/16 10:43:49;;;;;;;9.15;6.13;;;25.70;74.80;;;;;;5032553;28;20455;-71
2023/06/16 10:46:20;;;;;;;11.20;5.97;;;25.90;74.80;;;;;;5033530;28;20029;-71
2023/06/16 10:48:56;;;;;;;8.65;4.90;;;26.10;74.30;;;;;;5033058;28;20286;-71
2023/06/16 10:51:59;;;;;;;9.98;5.45;;;26.30;74.70;;;;;;5033143;28;20090;-71
2023/06/16 10:54:36;;;;;;;8.98;4.78;;;26.50;73.80;;;;;;5033055;28;20113;-71
2023/06/16 10:57:06;;;;;;;;;;;26.60;73.20;;;;;;5033481;28;20033;-72
2023/06/16 10:59:52;;;;;;;13.55;4.90;;;26.60;73.90;;;;;;5032829;28;20406;-71
2023/06/16 11:02:20;;;;;;;14.93;6.13;;;26.70;73.10;;;;;;5016978;28;20437;-72
2023/06/16 11:05:11;;;;;;;11.32;5.63;;;26.70;74.20;;;;;;5014929;28;20371;-73
2023/06/16 11:07:42;;;;;;;9.18;5.20;;;26.80;72.40;;;;;;5030882;28;20353;-73
2023/06/16 11:10:09;;;;;;;6.47;4.88;;;26.50;71.00;;;;;;5031327;28;20402;-71
2023/06/16 11:12:37;;;;;;;8.32;4.63;;;26.30;70.80;;;;;;5032161;28;20025;-73
2023/06/16 11:15:07;;;;;;;7.97;4.70;;;26.10;71.20;;;;;;5031192;28;20471;-71
2023/06/16 11:17:33;;;;;;;6.82;4.35;;;26.10;70.60;;;;;;5031958;28;20035;-70
2023/06/16 11:20:01;;;;;;;6.90;4.47;;;25.80;70.20;;;;;;5031571;28;20078;-69
2023/06/16 11:22:30;;;;;;;;;;;25.90;71.20;;;;;;5032205;28;20038;-70
2023/06/16 11:24:56;;;;;;;7.85;4.95;;;25.80;71.70;;;;;;5042151;28;19919;-70
2023/06/16 11:27:22;;;;;;;14.40;4.53;;;25.90;71.60;;;;;;5052101;28;20025;-71
2023/06/16 11:29:48;;;;;;;6.40;4.30;;;26.10;70.90;;;;;;5052127;28;20548;-72
2023/06/16 11:32:17;;;;;;;11.25;3.63;;;26.10;69.80;;;;;;5052066;28;20443;-70
2023/06/16 11:34:42;;;;;;;10.35;3.83;;;26.30;68.10;;;;;;5052632;28;20099;-72
2023/06/16 11:37:08;;;;;;;8.18;3.75;;;26.50;66.90;;;;;;5052519;28;20420;-71
2023/06/16 11:39:44;;;;;;;8.88;4.60;;;26.40;65.90;;;;;;5052001;28;20424;-70
2023/06/16 11:42:16;;;;;;;8.50;4.72;;;26.40;66.20;;;;;;5052126;28;20108;-73
2023/06/16 11:44:45;;;;;;;6.80;4.10;;;26.40;66.30;;;;;;5052106;28;20048;-71
2023/06/16 11:47:11;;;;;;;10.63;3.83;;;26.40;66.50;;;;;;5050719;28;20029;-71
2023/06/16 11:49:37;;;;;;;6.00;4.40;;;26.40;67.50;;;;;;5052033;28;20032;-71
2023/06/16 11:52:06;;;;;;;8.65;4.30;;;26.40;66.20;;;;;;5052568;28;20017;-70
2023/06/16 11:54:33;;;;;;;9.57;4.60;;;26.60;66.30;;;;;;5051519;28;20462;-70
2023/06/16 11:57:00;;;;;;;6.47;4.53;;;26.80;68.70;;;;;;5051810;28;20090;-71
2023/06/16 11:59:30;;;;;;;10.60;4.80;;;26.70;66.20;;;;;;5051658;28;20501;-70
2023/06/16 12:02:01;;;;;;;8.93;5.05;;;26.80;68.40;;;;;;5051551;28;20045;-71
2023/06/16 12:04:27;;;;;;;8.70;5.30;;;27.00;67.50;;;;;;5051137;28;20366;-72
2023/06/16 12:06:56;;;;;;;5.75;4.55;;;27.00;66.50;;;;;;5052046;28;20102;-71
2023/06/16 12:09:24;;;;;;;7.78;4.60;;;26.80;66.80;;;;;;5051400;28;20530;-70
2023/06/16 12:11:52;;;;;;;6.55;4.57;;;26.50;68.00;;;;;;5051577;28;20047;-70
2023/06/16 12:14:22;;;;;;;6.30;4.30;;;26.00;69.50;;;;;;5051539;28;20141;-70
2023/06/16 12:16:51;;;;;;;6.70;4.38;;;25.90;69.60;;;;;;5051777;28;20021;-71
2023/06/16 12:19:21;;;;;;;8.18;5.05;;;25.90;69.70;;;;;;5052239;28;20085;-71
2023/06/16 12:21:56;;;;;;;6.22;4.43;;;26.00;69.80;;;;;;5050506;28;20106;-69
2023/06/16 12:24:21;;;;;;;7.03;4.57;;;25.90;69.40;;;;;;5050989;28;20472;-69
2023/06/16 12:26:48;;;;;;;8.85;4.78;;;25.90;70.70;;;;;;5051457;28;20107;-70
2023/06/16 12:29:15;;;;;;;6.63;4.55;;;26.00;70.50;;;;;;5050522;28;20029;-69
2023/06/16 12:32:02;;;;;;;7.05;4.55;;;25.80;70.40;;;;;;5050389;28;20045;-70
2023/06/16 12:34:35;;;;;;;9.07;4.35;;;25.70;70.50;;;;;;5050288;28;20524;-69
2023/06/16 12:37:12;;;;;;;6.07;4.50;;;25.90;71.60;;;;;;5049523;28;20481;-69
2023/06/16 12:39:38;;;;;;;10.80;5.78;;;26.00;70.80;;;;;;5050187;28;20071;-69
2023/06/16 12:42:11;;;;;;;12.05;5.47;;;26.00;70.90;;;;;;5050409;28;20124;-68
2023/06/16 12:44:42;;;;;;;9.70;5.47;;;26.00;71.30;;;;;;5050137;28;20033;-67